This is the latest recevied weather packets stored in our database for station/object ON4CDJ-13. If no packets are shown the sender has not sent any weather packets the latest 10 day(s).
| Time | Temp. | Humidity | Pressure | Rain* | Wind** | Luminosity | Snow |
|---|---|---|---|---|---|---|---|
| 1777566920 | 21.67° C | 24% | 1023.7 hPa | 0 mm | - | 184 W/m² | - |
| 1777563330 | 22.22° C | 24% | 1023.8 hPa | 0 mm | - | 324 W/m² | - |
| 1777558519 | 21.67° C | 25% | 1024.3 hPa | 0 mm | - | 483 W/m² | - |
| 1777552522 | 20° C | 27% | 1025.1 hPa | 0 mm | - | 619 W/m² | - |
| 1777551352 | 19.44° C | 26% | 1025.3 hPa | 0 mm | - | 635 W/m² | - |
| 1777545974 | 18.33° C | 29% | 1026 hPa | 0 mm | - | 635 W/m² | - |
| 1777544733 | 18.33° C | 30% | 1026.1 hPa | 0 mm | - | 620 W/m² | - |
| 1777539365 | 15.56° C | 35% | 1026.7 hPa | 0 mm | - | 496 W/m² | - |
| 1777533974 | 13.33° C | 40% | 1027.3 hPa | 0 mm | - | 300 W/m² | - |
| 1777526169 | 9.44° C | 48% | 1026.7 hPa | 0 mm | - | 35 W/m² | - |
| 1777525551 | 9.44° C | 49% | 1026.6 hPa | 0 mm | - | 22 W/m² | - |
| 1777523764 | 9.44° C | 49% | 1026.7 hPa | 0 mm | - | 8 W/m² | - |
| 1777518926 | 10° C | 48% | 1026.5 hPa | 0 mm | - | 0 W/m² | - |
| 1777515349 | 11.11° C | 46% | 1026.5 hPa | 0 mm | - | 0 W/m² | - |
| 1777512327 | 11.67° C | 45% | 1026.6 hPa | 0 mm | - | 0 W/m² | - |
| 1777511772 | 11.67° C | 45% | 1026.6 hPa | 0 mm | - | 0 W/m² | - |
| 1777510533 | 12.22° C | 45% | 1026.4 hPa | 0 mm | - | 0 W/m² | - |
| 1777509362 | 12.22° C | 45% | 1026.4 hPa | 0 mm | - | 0 W/m² | - |
| 1777508130 | 12.22° C | 46% | 1026.4 hPa | 0 mm | - | 0 W/m² | - |
| 1777503927 | 13.33° C | 43% | 1026.1 hPa | 0 mm | - | 0 W/m² | - |
| 1777503370 | 13.33° C | 43% | 1025.9 hPa | 0 mm | - | 0 W/m² | - |
| 1777502748 | 13.33° C | 43% | 1025.9 hPa | 0 mm | - | 0 W/m² | - |
| 1777501587 | 13.89° C | 42% | 1025.8 hPa | 0 mm | - | 0 W/m² | - |
| 1777500952 | 13.89° C | 42% | 1025.8 hPa | 0 mm | - | 0 W/m² | - |
| 1777500335 | 13.89° C | 41% | 1025.8 hPa | 0 mm | - | 0 W/m² | - |
* Rain latest hour (hover to see other rain measurements)
** Current wind speed in m/s (hover to see current wind gust speed)